sensor_id;sensor_type;location;lat;lon;timestamp;temperature;humidity
13458;DHT22;6801;53.018;11.560;2024-02-16T00:00:25;11.70;89.30
13458;DHT22;6801;53.018;11.560;2024-02-16T00:02:52;11.60;89.40
13458;DHT22;6801;53.018;11.560;2024-02-16T00:05:19;11.60;89.40
13458;DHT22;6801;53.018;11.560;2024-02-16T00:07:46;11.60;89.40
13458;DHT22;6801;53.018;11.560;2024-02-16T00:10:13;11.60;89.40
13458;DHT22;6801;53.018;11.560;2024-02-16T00:12:40;11.60;89.40
13458;DHT22;6801;53.018;11.560;2024-02-16T00:15:08;11.50;89.40
13458;DHT22;6801;53.018;11.560;2024-02-16T00:17:37;11.60;89.30
13458;DHT22;6801;53.018;11.560;2024-02-16T00:20:06;11.60;89.30
13458;DHT22;6801;53.018;11.560;2024-02-16T00:22:34;11.50;89.40
13458;DHT22;6801;53.018;11.560;2024-02-16T00:25:01;11.50;89.40
13458;DHT22;6801;53.018;11.560;2024-02-16T00:27:29;11.50;89.30
13458;DHT22;6801;53.018;11.560;2024-02-16T00:29:56;11.50;89.40
13458;DHT22;6801;53.018;11.560;2024-02-16T00:32:23;11.40;89.40
13458;DHT22;6801;53.018;11.560;2024-02-16T00:34:57;11.40;89.40
13458;DHT22;6801;53.018;11.560;2024-02-16T00:37:24;11.50;89.50
13458;DHT22;6801;53.018;11.560;2024-02-16T00:39:51;11.40;89.50
13458;DHT22;6801;53.018;11.560;2024-02-16T00:42:20;11.40;89.40
13458;DHT22;6801;53.018;11.560;2024-02-16T00:44:48;11.40;89.50
13458;DHT22;6801;53.018;11.560;2024-02-16T00:47:15;11.40;89.40
13458;DHT22;6801;53.018;11.560;2024-02-16T00:49:43;11.40;89.40
13458;DHT22;6801;53.018;11.560;2024-02-16T00:52:11;11.40;89.40
13458;DHT22;6801;53.018;11.560;2024-02-16T00:54:38;11.30;89.40
13458;DHT22;6801;53.018;11.560;2024-02-16T00:57:05;11.30;89.40
13458;DHT22;6801;53.018;11.560;2024-02-16T00:59:32;11.30;89.40
13458;DHT22;6801;53.018;11.560;2024-02-16T01:01:59;11.30;89.40
13458;DHT22;6801;53.018;11.560;2024-02-16T01:04:26;11.30;89.30
13458;DHT22;6801;53.018;11.560;2024-02-16T01:06:52;11.30;89.40
13458;DHT22;6801;53.018;11.560;2024-02-16T01:09:21;11.30;89.30
13458;DHT22;6801;53.018;11.560;2024-02-16T01:11:48;11.20;89.20
13458;DHT22;6801;53.018;11.560;2024-02-16T01:14:15;11.20;89.20
13458;DHT22;6801;53.018;11.560;2024-02-16T01:16:42;11.20;89.20
13458;DHT22;6801;53.018;11.560;2024-02-16T01:19:09;11.20;89.10
13458;DHT22;6801;53.018;11.560;2024-02-16T01:21:36;11.20;89.10
13458;DHT22;6801;53.018;11.560;2024-02-16T01:24:03;11.20;89.10
13458;DHT22;6801;53.018;11.560;2024-02-16T01:26:32;11.20;89.10
13458;DHT22;6801;53.018;11.560;2024-02-16T01:28:59;11.20;89.10
13458;DHT22;6801;53.018;11.560;2024-02-16T01:31:27;11.10;89.10
13458;DHT22;6801;53.018;11.560;2024-02-16T01:33:54;11.10;89.10
13458;DHT22;6801;53.018;11.560;2024-02-16T01:36:21;11.10;89.20
13458;DHT22;6801;53.018;11.560;2024-02-16T01:38:48;11.10;89.10
13458;DHT22;6801;53.018;11.560;2024-02-16T01:41:15;11.10;89.20
13458;DHT22;6801;53.018;11.560;2024-02-16T01:43:44;11.10;89.20
13458;DHT22;6801;53.018;11.560;2024-02-16T01:46:11;11.10;89.30
13458;DHT22;6801;53.018;11.560;2024-02-16T01:48:37;11.10;89.30
13458;DHT22;6801;53.018;11.560;2024-02-16T01:51:06;11.10;89.20
13458;DHT22;6801;53.018;11.560;2024-02-16T01:53:34;11.10;89.10
13458;DHT22;6801;53.018;11.560;2024-02-16T01:56:02;11.10;89.10
13458;DHT22;6801;53.018;11.560;2024-02-16T01:58:30;11.00;89.20
13458;DHT22;6801;53.018;11.560;2024-02-16T02:00:59;11.00;89.30
13458;DHT22;6801;53.018;11.560;2024-02-16T02:03:25;11.00;89.30
13458;DHT22;6801;53.018;11.560;2024-02-16T02:05:52;11.00;89.30
13458;DHT22;6801;53.018;11.560;2024-02-16T02:08:21;11.00;89.20
13458;DHT22;6801;53.018;11.560;2024-02-16T02:10:48;11.00;89.20
13458;DHT22;6801;53.018;11.560;2024-02-16T02:13:16;11.00;89.20
13458;DHT22;6801;53.018;11.560;2024-02-16T02:15:45;11.00;89.20
13458;DHT22;6801;53.018;11.560;2024-02-16T02:18:13;11.00;89.20
13458;DHT22;6801;53.018;11.560;2024-02-16T02:20:40;11.00;89.20
13458;DHT22;6801;53.018;11.560;2024-02-16T02:23:09;11.00;89.10
13458;DHT22;6801;53.018;11.560;2024-02-16T02:25:36;11.00;89.10
13458;DHT22;6801;53.018;11.560;2024-02-16T02:28:05;10.90;89.10
13458;DHT22;6801;53.018;11.560;2024-02-16T02:30:32;10.90;89.10
13458;DHT22;6801;53.018;11.560;2024-02-16T02:32:59;10.90;89.10
13458;DHT22;6801;53.018;11.560;2024-02-16T02:35:26;10.90;89.00
13458;DHT22;6801;53.018;11.560;2024-02-16T02:37:53;10.90;89.00
13458;DHT22;6801;53.018;11.560;2024-02-16T02:40:21;10.90;89.00
13458;DHT22;6801;53.018;11.560;2024-02-16T02:42:48;10.90;89.00
13458;DHT22;6801;53.018;11.560;2024-02-16T02:45:15;10.90;89.00
13458;DHT22;6801;53.018;11.560;2024-02-16T02:47:42;10.80;89.00
13458;DHT22;6801;53.018;11.560;2024-02-16T02:50:10;10.90;89.00
13458;DHT22;6801;53.018;11.560;2024-02-16T02:52:36;10.90;89.00
13458;DHT22;6801;53.018;11.560;2024-02-16T02:55:04;10.80;89.00
13458;DHT22;6801;53.018;11.560;2024-02-16T02:57:33;10.80;89.10
13458;DHT22;6801;53.018;11.560;2024-02-16T03:00:04;10.80;89.10
13458;DHT22;6801;53.018;11.560;2024-02-16T03:02:33;10.80;89.10
13458;DHT22;6801;53.018;11.560;2024-02-16T03:05:01;10.80;89.10
13458;DHT22;6801;53.018;11.560;2024-02-16T03:07:28;10.80;89.00
13458;DHT22;6801;53.018;11.560;2024-02-16T03:09:54;10.80;89.00
13458;DHT22;6801;53.018;11.560;2024-02-16T03:12:24;10.80;89.00
13458;DHT22;6801;53.018;11.560;2024-02-16T03:14:53;10.80;89.00
13458;DHT22;6801;53.018;11.560;2024-02-16T03:17:20;10.80;89.00
13458;DHT22;6801;53.018;11.560;2024-02-16T03:19:47;10.80;89.00
13458;DHT22;6801;53.018;11.560;2024-02-16T03:22:14;10.80;88.90
13458;DHT22;6801;53.018;11.560;2024-02-16T03:24:41;10.80;89.00
13458;DHT22;6801;53.018;11.560;2024-02-16T03:27:07;10.80;89.00
13458;DHT22;6801;53.018;11.560;2024-02-16T03:29:36;10.80;89.00
13458;DHT22;6801;53.018;11.560;2024-02-16T03:32:04;10.70;89.10
13458;DHT22;6801;53.018;11.560;2024-02-16T03:34:31;10.70;89.10
13458;DHT22;6801;53.018;11.560;2024-02-16T03:36:58;10.70;89.10
13458;DHT22;6801;53.018;11.560;2024-02-16T03:39:25;10.70;89.00
13458;DHT22;6801;53.018;11.560;2024-02-16T03:41:52;10.70;89.10
13458;DHT22;6801;53.018;11.560;2024-02-16T03:44:19;10.70;89.10
13458;DHT22;6801;53.018;11.560;2024-02-16T03:46:47;10.70;89.10
13458;DHT22;6801;53.018;11.560;2024-02-16T03:49:15;10.70;89.10
13458;DHT22;6801;53.018;11.560;2024-02-16T03:51:42;10.70;89.10
13458;DHT22;6801;53.018;11.560;2024-02-16T03:54:10;10.70;89.10
13458;DHT22;6801;53.018;11.560;2024-02-16T03:56:37;10.70;89.00
13458;DHT22;6801;53.018;11.560;2024-02-16T03:59:04;10.70;89.00
13458;DHT22;6801;53.018;11.560;2024-02-16T04:01:31;10.60;89.10
13458;DHT22;6801;53.018;11.560;2024-02-16T04:03:58;10.60;89.00
13458;DHT22;6801;53.018;11.560;2024-02-16T04:06:26;10.60;89.10
13458;DHT22;6801;53.018;11.560;2024-02-16T04:08:53;10.60;89.10
13458;DHT22;6801;53.018;11.560;2024-02-16T04:11:21;10.60;89.10
13458;DHT22;6801;53.018;11.560;2024-02-16T04:13:48;10.60;89.10
13458;DHT22;6801;53.018;11.560;2024-02-16T04:16:15;10.60;89.10
13458;DHT22;6801;53.018;11.560;2024-02-16T04:18:42;10.60;89.10
13458;DHT22;6801;53.018;11.560;2024-02-16T04:21:09;10.60;89.10
13458;DHT22;6801;53.018;11.560;2024-02-16T04:23:38;10.60;89.10
13458;DHT22;6801;53.018;11.560;2024-02-16T04:26:05;10.60;89.10
13458;DHT22;6801;53.018;11.560;2024-02-16T04:28:32;10.60;89.10
13458;DHT22;6801;53.018;11.560;2024-02-16T04:30:59;10.60;89.10
13458;DHT22;6801;53.018;11.560;2024-02-16T04:33:26;10.50;89.10
13458;DHT22;6801;53.018;11.560;2024-02-16T04:35:53;10.50;89.10
13458;DHT22;6801;53.018;11.560;2024-02-16T04:38:20;10.50;89.10
13458;DHT22;6801;53.018;11.560;2024-02-16T04:40:49;10.50;89.00
13458;DHT22;6801;53.018;11.560;2024-02-16T04:43:15;10.50;89.00
13458;DHT22;6801;53.018;11.560;2024-02-16T04:45:43;10.50;89.10
13458;DHT22;6801;53.018;11.560;2024-02-16T04:48:10;10.50;89.10
13458;DHT22;6801;53.018;11.560;2024-02-16T04:50:37;10.50;89.10
13458;DHT22;6801;53.018;11.560;2024-02-16T04:53:04;10.50;89.10
13458;DHT22;6801;53.018;11.560;2024-02-16T04:55:31;10.50;89.00
13458;DHT22;6801;53.018;11.560;2024-02-16T04:58:00;10.50;89.00
13458;DHT22;6801;53.018;11.560;2024-02-16T05:00:30;10.40;89.00
13458;DHT22;6801;53.018;11.560;2024-02-16T05:02:57;10.50;89.10
13458;DHT22;6801;53.018;11.560;2024-02-16T05:05:24;10.50;89.00
13458;DHT22;6801;53.018;11.560;2024-02-16T05:07:51;10.40;89.00
13458;DHT22;6801;53.018;11.560;2024-02-16T05:10:18;10.50;89.10
13458;DHT22;6801;53.018;11.560;2024-02-16T05:12:45;10.40;89.10
13458;DHT22;6801;53.018;11.560;2024-02-16T05:15:14;10.40;89.10
13458;DHT22;6801;53.018;11.560;2024-02-16T05:17:40;10.40;89.10
13458;DHT22;6801;53.018;11.560;2024-02-16T05:20:11;10.40;89.10
13458;DHT22;6801;53.018;11.560;2024-02-16T05:22:41;10.40;89.10
13458;DHT22;6801;53.018;11.560;2024-02-16T05:25:09;10.40;89.00
13458;DHT22;6801;53.018;11.560;2024-02-16T05:27:36;10.40;89.00
13458;DHT22;6801;53.018;11.560;2024-02-16T05:30:04;10.30;89.00
13458;DHT22;6801;53.018;11.560;2024-02-16T05:32:35;10.30;89.00
13458;DHT22;6801;53.018;11.560;2024-02-16T05:35:03;10.30;89.00
13458;DHT22;6801;53.018;11.560;2024-02-16T05:37:37;10.30;89.00
13458;DHT22;6801;53.018;11.560;2024-02-16T05:40:07;10.40;89.00
13458;DHT22;6801;53.018;11.560;2024-02-16T05:42:46;10.30;88.90
13458;DHT22;6801;53.018;11.560;2024-02-16T05:45:13;10.30;89.00
13458;DHT22;6801;53.018;11.560;2024-02-16T05:47:42;10.30;89.00
13458;DHT22;6801;53.018;11.560;2024-02-16T05:50:11;10.30;88.90
13458;DHT22;6801;53.018;11.560;2024-02-16T05:52:38;10.30;88.90
13458;DHT22;6801;53.018;11.560;2024-02-16T05:55:07;10.30;88.90
13458;DHT22;6801;53.018;11.560;2024-02-16T05:57:34;10.20;88.90
13458;DHT22;6801;53.018;11.560;2024-02-16T06:00:01;10.20;88.90
13458;DHT22;6801;53.018;11.560;2024-02-16T06:02:30;10.20;89.00
13458;DHT22;6801;53.018;11.560;2024-02-16T06:04:59;10.20;88.90
13458;DHT22;6801;53.018;11.560;2024-02-16T06:07:26;10.20;89.00
13458;DHT22;6801;53.018;11.560;2024-02-16T06:09:54;10.20;89.00
13458;DHT22;6801;53.018;11.560;2024-02-16T06:12:22;10.20;89.00
13458;DHT22;6801;53.018;11.560;2024-02-16T06:14:49;10.10;89.00
13458;DHT22;6801;53.018;11.560;2024-02-16T06:17:16;10.10;89.00
13458;DHT22;6801;53.018;11.560;2024-02-16T06:19:43;10.10;89.10
13458;DHT22;6801;53.018;11.560;2024-02-16T06:22:12;10.10;89.10
13458;DHT22;6801;53.018;11.560;2024-02-16T06:24:39;10.10;89.20
13458;DHT22;6801;53.018;11.560;2024-02-16T06:27:06;10.10;89.20
13458;DHT22;6801;53.018;11.560;2024-02-16T06:29:33;10.10;89.10
13458;DHT22;6801;53.018;11.560;2024-02-16T06:32:01;10.10;89.20
13458;DHT22;6801;53.018;11.560;2024-02-16T06:34:29;10.10;89.20
13458;DHT22;6801;53.018;11.560;2024-02-16T06:36:56;10.10;89.20
13458;DHT22;6801;53.018;11.560;2024-02-16T06:39:24;10.10;89.20
13458;DHT22;6801;53.018;11.560;2024-02-16T06:41:51;10.10;89.20
13458;DHT22;6801;53.018;11.560;2024-02-16T06:44:18;10.10;89.20
13458;DHT22;6801;53.018;11.560;2024-02-16T06:46:45;10.10;89.20
13458;DHT22;6801;53.018;11.560;2024-02-16T06:49:12;10.10;89.20
13458;DHT22;6801;53.018;11.560;2024-02-16T06:51:39;10.10;89.20
13458;DHT22;6801;53.018;11.560;2024-02-16T06:54:06;10.10;89.20
13458;DHT22;6801;53.018;11.560;2024-02-16T06:56:34;10.10;89.20
13458;DHT22;6801;53.018;11.560;2024-02-16T06:59:02;10.10;89.20
13458;DHT22;6801;53.018;11.560;2024-02-16T07:01:29;10.20;89.20
13458;DHT22;6801;53.018;11.560;2024-02-16T07:03:56;10.20;89.20
13458;DHT22;6801;53.018;11.560;2024-02-16T07:06:23;10.10;89.10
13458;DHT22;6801;53.018;11.560;2024-02-16T07:08:50;10.10;89.20
13458;DHT22;6801;53.018;11.560;2024-02-16T07:11:18;10.20;89.10
13458;DHT22;6801;53.018;11.560;2024-02-16T07:13:48;10.20;89.10
13458;DHT22;6801;53.018;11.560;2024-02-16T07:16:14;10.20;89.10
13458;DHT22;6801;53.018;11.560;2024-02-16T07:18:42;10.20;89.10
13458;DHT22;6801;53.018;11.560;2024-02-16T07:21:09;10.20;89.10
13458;DHT22;6801;53.018;11.560;2024-02-16T07:23:37;10.20;89.10
13458;DHT22;6801;53.018;11.560;2024-02-16T07:26:04;10.20;89.00
13458;DHT22;6801;53.018;11.560;2024-02-16T07:28:31;10.20;89.10
13458;DHT22;6801;53.018;11.560;2024-02-16T07:30:59;10.20;89.10
13458;DHT22;6801;53.018;11.560;2024-02-16T07:33:27;10.20;89.10
13458;DHT22;6801;53.018;11.560;2024-02-16T07:35:54;10.20;89.10
13458;DHT22;6801;53.018;11.560;2024-02-16T07:38:21;10.30;89.00
13458;DHT22;6801;53.018;11.560;2024-02-16T07:40:48;10.20;89.10
13458;DHT22;6801;53.018;11.560;2024-02-16T07:43:16;10.20;89.00
13458;DHT22;6801;53.018;11.560;2024-02-16T07:45:44;10.30;89.00
13458;DHT22;6801;53.018;11.560;2024-02-16T07:48:12;10.20;89.00
13458;DHT22;6801;53.018;11.560;2024-02-16T07:50:39;10.30;89.00
13458;DHT22;6801;53.018;11.560;2024-02-16T07:53:06;10.30;89.00
13458;DHT22;6801;53.018;11.560;2024-02-16T07:55:35;10.30;89.00
13458;DHT22;6801;53.018;11.560;2024-02-16T07:58:02;10.30;89.00
13458;DHT22;6801;53.018;11.560;2024-02-16T08:00:29;10.30;89.00
13458;DHT22;6801;53.018;11.560;2024-02-16T08:02:56;10.30;89.00
13458;DHT22;6801;53.018;11.560;2024-02-16T08:05:25;10.30;89.00
13458;DHT22;6801;53.018;11.560;2024-02-16T08:07:52;10.40;89.00
13458;DHT22;6801;53.018;11.560;2024-02-16T08:10:19;10.30;89.00
13458;DHT22;6801;53.018;11.560;2024-02-16T08:12:47;10.40;89.00
13458;DHT22;6801;53.018;11.560;2024-02-16T08:15:14;10.40;88.90
13458;DHT22;6801;53.018;11.560;2024-02-16T08:17:48;10.40;88.90
13458;DHT22;6801;53.018;11.560;2024-02-16T08:20:16;10.40;88.90
13458;DHT22;6801;53.018;11.560;2024-02-16T08:22:44;10.40;88.90
13458;DHT22;6801;53.018;11.560;2024-02-16T08:25:11;10.40;88.90
13458;DHT22;6801;53.018;11.560;2024-02-16T08:27:38;10.40;88.90
13458;DHT22;6801;53.018;11.560;2024-02-16T08:30:06;10.40;88.90
13458;DHT22;6801;53.018;11.560;2024-02-16T08:32:34;10.50;88.90
13458;DHT22;6801;53.018;11.560;2024-02-16T08:35:01;10.50;88.90
13458;DHT22;6801;53.018;11.560;2024-02-16T08:37:28;10.50;88.90
13458;DHT22;6801;53.018;11.560;2024-02-16T08:39:57;10.50;88.90
13458;DHT22;6801;53.018;11.560;2024-02-16T08:42:24;10.50;88.90
13458;DHT22;6801;53.018;11.560;2024-02-16T08:44:51;10.50;88.80
13458;DHT22;6801;53.018;11.560;2024-02-16T08:47:18;10.50;88.90
13458;DHT22;6801;53.018;11.560;2024-02-16T08:49:45;10.50;88.80
13458;DHT22;6801;53.018;11.560;2024-02-16T08:52:12;10.50;88.80
13458;DHT22;6801;53.018;11.560;2024-02-16T08:54:38;10.50;88.80
13458;DHT22;6801;53.018;11.560;2024-02-16T08:57:07;10.50;88.80
13458;DHT22;6801;53.018;11.560;2024-02-16T08:59:35;10.60;88.80
13458;DHT22;6801;53.018;11.560;2024-02-16T09:02:02;10.60;88.80
13458;DHT22;6801;53.018;11.560;2024-02-16T09:04:30;10.60;88.80
13458;DHT22;6801;53.018;11.560;2024-02-16T09:06:57;10.60;88.80
13458;DHT22;6801;53.018;11.560;2024-02-16T09:09:23;10.70;88.80
13458;DHT22;6801;53.018;11.560;2024-02-16T09:11:51;10.70;88.80
13458;DHT22;6801;53.018;11.560;2024-02-16T09:14:20;10.70;88.80
13458;DHT22;6801;53.018;11.560;2024-02-16T09:16:48;10.80;88.80
13458;DHT22;6801;53.018;11.560;2024-02-16T09:19:17;10.80;88.80
13458;DHT22;6801;53.018;11.560;2024-02-16T09:21:44;10.80;88.70
13458;DHT22;6801;53.018;11.560;2024-02-16T09:24:11;10.80;88.80
13458;DHT22;6801;53.018;11.560;2024-02-16T09:26:43;10.90;88.70
13458;DHT22;6801;53.018;11.560;2024-02-16T09:29:12;10.90;88.70
13458;DHT22;6801;53.018;11.560;2024-02-16T09:31:40;11.00;88.70
13458;DHT22;6801;53.018;11.560;2024-02-16T09:34:07;11.00;88.60
13458;DHT22;6801;53.018;11.560;2024-02-16T09:36:34;11.00;88.60
13458;DHT22;6801;53.018;11.560;2024-02-16T09:39:02;11.00;88.60
13458;DHT22;6801;53.018;11.560;2024-02-16T09:41:32;11.00;88.60
13458;DHT22;6801;53.018;11.560;2024-02-16T09:44:00;11.10;88.60
13458;DHT22;6801;53.018;11.560;2024-02-16T09:46:28;11.10;88.60
13458;DHT22;6801;53.018;11.560;2024-02-16T09:48:59;11.10;88.60
13458;DHT22;6801;53.018;11.560;2024-02-16T09:51:28;11.20;88.70
13458;DHT22;6801;53.018;11.560;2024-02-16T09:53:55;11.20;88.70
13458;DHT22;6801;53.018;11.560;2024-02-16T09:56:22;11.30;88.60
13458;DHT22;6801;53.018;11.560;2024-02-16T09:58:50;11.30;88.70
13458;DHT22;6801;53.018;11.560;2024-02-16T10:01:19;11.40;88.70
13458;DHT22;6801;53.018;11.560;2024-02-16T10:03:47;11.50;88.70
13458;DHT22;6801;53.018;11.560;2024-02-16T10:06:17;11.50;88.70
13458;DHT22;6801;53.018;11.560;2024-02-16T10:08:49;11.60;88.80
13458;DHT22;6801;53.018;11.560;2024-02-16T10:11:18;11.60;88.90
13458;DHT22;6801;53.018;11.560;2024-02-16T10:13:55;11.70;88.90
13458;DHT22;6801;53.018;11.560;2024-02-16T10:16:23;11.80;88.90
13458;DHT22;6801;53.018;11.560;2024-02-16T10:18:50;11.90;88.90
13458;DHT22;6801;53.018;11.560;2024-02-16T10:21:26;12.00;88.90
13458;DHT22;6801;53.018;11.560;2024-02-16T10:24:00;12.00;88.80
13458;DHT22;6801;53.018;11.560;2024-02-16T10:26:30;12.10;88.70
13458;DHT22;6801;53.018;11.560;2024-02-16T10:28:57;12.10;88.60
13458;DHT22;6801;53.018;11.560;2024-02-16T10:31:25;12.10;88.60
13458;DHT22;6801;53.018;11.560;2024-02-16T10:33:57;12.20;88.60
13458;DHT22;6801;53.018;11.560;2024-02-16T10:36:26;12.30;88.60
13458;DHT22;6801;53.018;11.560;2024-02-16T10:38:55;12.30;88.60
13458;DHT22;6801;53.018;11.560;2024-02-16T10:41:26;12.40;88.40
13458;DHT22;6801;53.018;11.560;2024-02-16T10:43:55;12.40;88.30
13458;DHT22;6801;53.018;11.560;2024-02-16T10:46:22;12.50;87.90
13458;DHT22;6801;53.018;11.560;2024-02-16T10:48:50;12.50;87.90
13458;DHT22;6801;53.018;11.560;2024-02-16T10:51:20;12.50;87.80
13458;DHT22;6801;53.018;11.560;2024-02-16T10:53:51;12.50;87.80
13458;DHT22;6801;53.018;11.560;2024-02-16T10:56:26;12.60;87.50
13458;DHT22;6801;53.018;11.560;2024-02-16T10:58:54;12.60;87.80
13458;DHT22;6801;53.018;11.560;2024-02-16T11:01:21;12.70;87.50
13458;DHT22;6801;53.018;11.560;2024-02-16T11:03:48;12.70;87.10
13458;DHT22;6801;53.018;11.560;2024-02-16T11:06:15;12.80;87.20
13458;DHT22;6801;53.018;11.560;2024-02-16T11:08:43;12.90;86.90
13458;DHT22;6801;53.018;11.560;2024-02-16T11:11:11;13.00;85.90
13458;DHT22;6801;53.018;11.560;2024-02-16T11:13:49;13.00;86.40
13458;DHT22;6801;53.018;11.560;2024-02-16T11:16:17;13.10;86.70
13458;DHT22;6801;53.018;11.560;2024-02-16T11:18:46;13.10;86.50
13458;DHT22;6801;53.018;11.560;2024-02-16T11:21:15;13.20;86.40
13458;DHT22;6801;53.018;11.560;2024-02-16T11:23:42;13.30;86.70
13458;DHT22;6801;53.018;11.560;2024-02-16T11:26:12;13.30;86.90
13458;DHT22;6801;53.018;11.560;2024-02-16T11:28:41;13.40;87.20
13458;DHT22;6801;53.018;11.560;2024-02-16T11:31:08;13.50;86.90
13458;DHT22;6801;53.018;11.560;2024-02-16T11:33:35;13.50;85.70
13458;DHT22;6801;53.018;11.560;2024-02-16T11:36:04;13.60;86.60
13458;DHT22;6801;53.018;11.560;2024-02-16T11:38:34;13.60;86.50
13458;DHT22;6801;53.018;11.560;2024-02-16T11:41:03;13.70;86.50
13458;DHT22;6801;53.018;11.560;2024-02-16T11:43:32;13.70;86.20
13458;DHT22;6801;53.018;11.560;2024-02-16T11:45:59;13.70;86.00
13458;DHT22;6801;53.018;11.560;2024-02-16T11:48:26;13.70;86.20
13458;DHT22;6801;53.018;11.560;2024-02-16T11:51:00;13.70;86.20
13458;DHT22;6801;53.018;11.560;2024-02-16T11:53:27;13.70;86.30
13458;DHT22;6801;53.018;11.560;2024-02-16T11:55:54;13.70;86.10
13458;DHT22;6801;53.018;11.560;2024-02-16T11:58:22;13.70;86.10
13458;DHT22;6801;53.018;11.560;2024-02-16T12:00:51;13.80;85.80
13458;DHT22;6801;53.018;11.560;2024-02-16T12:03:18;13.90;84.90
13458;DHT22;6801;53.018;11.560;2024-02-16T12:05:50;13.90;85.60
13458;DHT22;6801;53.018;11.560;2024-02-16T12:08:17;14.00;85.40
13458;DHT22;6801;53.018;11.560;2024-02-16T12:10:44;14.00;85.70
13458;DHT22;6801;53.018;11.560;2024-02-16T12:13:12;14.00;86.00
13458;DHT22;6801;53.018;11.560;2024-02-16T12:15:39;14.00;86.00
13458;DHT22;6801;53.018;11.560;2024-02-16T12:18:08;14.00;85.90
13458;DHT22;6801;53.018;11.560;2024-02-16T12:20:35;14.10;86.10
13458;DHT22;6801;53.018;11.560;2024-02-16T12:23:11;14.10;85.80
13458;DHT22;6801;53.018;11.560;2024-02-16T12:25:38;14.10;85.60
13458;DHT22;6801;53.018;11.560;2024-02-16T12:28:05;14.10;85.60
13458;DHT22;6801;53.018;11.560;2024-02-16T12:30:33;14.10;85.70
13458;DHT22;6801;53.018;11.560;2024-02-16T12:33:01;14.10;85.70
13458;DHT22;6801;53.018;11.560;2024-02-16T12:35:29;14.10;85.70
13458;DHT22;6801;53.018;11.560;2024-02-16T12:37:56;14.10;85.40
13458;DHT22;6801;53.018;11.560;2024-02-16T12:40:23;14.10;85.70
13458;DHT22;6801;53.018;11.560;2024-02-16T12:42:50;14.20;85.40
13458;DHT22;6801;53.018;11.560;2024-02-16T12:45:17;14.20;85.30
13458;DHT22;6801;53.018;11.560;2024-02-16T12:47:44;14.20;85.40
13458;DHT22;6801;53.018;11.560;2024-02-16T12:50:12;14.20;85.60
13458;DHT22;6801;53.018;11.560;2024-02-16T12:52:41;14.20;85.70
13458;DHT22;6801;53.018;11.560;2024-02-16T12:55:08;14.20;85.80
13458;DHT22;6801;53.018;11.560;2024-02-16T12:57:36;14.20;85.80
13458;DHT22;6801;53.018;11.560;2024-02-16T13:00:04;14.20;85.50
13458;DHT22;6801;53.018;11.560;2024-02-16T13:02:31;14.20;85.40
13458;DHT22;6801;53.018;11.560;2024-02-16T13:04:58;14.20;85.50
13458;DHT22;6801;53.018;11.560;2024-02-16T13:07:25;14.30;85.80
13458;DHT22;6801;53.018;11.560;2024-02-16T13:09:53;14.30;85.80
13458;DHT22;6801;53.018;11.560;2024-02-16T13:12:20;14.30;85.80
13458;DHT22;6801;53.018;11.560;2024-02-16T13:14:49;14.40;85.80
13458;DHT22;6801;53.018;11.560;2024-02-16T13:17:16;14.40;85.80
13458;DHT22;6801;53.018;11.560;2024-02-16T13:19:43;14.40;85.90
13458;DHT22;6801;53.018;11.560;2024-02-16T13:22:11;14.50;85.80
13458;DHT22;6801;53.018;11.560;2024-02-16T13:24:38;14.50;85.80
13458;DHT22;6801;53.018;11.560;2024-02-16T13:27:06;14.50;85.60
13458;DHT22;6801;53.018;11.560;2024-02-16T13:29:35;14.50;85.60
13458;DHT22;6801;53.018;11.560;2024-02-16T13:32:02;14.50;85.50
13458;DHT22;6801;53.018;11.560;2024-02-16T13:34:29;14.60;85.50
13458;DHT22;6801;53.018;11.560;2024-02-16T13:36:56;14.50;85.50
13458;DHT22;6801;53.018;11.560;2024-02-16T13:39:23;14.60;85.40
13458;DHT22;6801;53.018;11.560;2024-02-16T13:41:52;14.60;85.40
13458;DHT22;6801;53.018;11.560;2024-02-16T13:44:23;14.60;85.40
13458;DHT22;6801;53.018;11.560;2024-02-16T13:46:51;14.60;85.50
13458;DHT22;6801;53.018;11.560;2024-02-16T13:49:18;14.60;85.30
13458;DHT22;6801;53.018;11.560;2024-02-16T13:51:45;14.60;85.40
13458;DHT22;6801;53.018;11.560;2024-02-16T13:54:12;14.60;85.40
13458;DHT22;6801;53.018;11.560;2024-02-16T13:56:39;14.60;85.60
13458;DHT22;6801;53.018;11.560;2024-02-16T13:59:06;14.70;84.60
13458;DHT22;6801;53.018;11.560;2024-02-16T14:01:35;14.70;85.50
13458;DHT22;6801;53.018;11.560;2024-02-16T14:04:03;14.70;85.50
13458;DHT22;6801;53.018;11.560;2024-02-16T14:06:30;14.70;85.20
13458;DHT22;6801;53.018;11.560;2024-02-16T14:08:57;14.80;85.10
13458;DHT22;6801;53.018;11.560;2024-02-16T14:11:24;14.80;85.10
13458;DHT22;6801;53.018;11.560;2024-02-16T14:13:51;14.80;85.10
13458;DHT22;6801;53.018;11.560;2024-02-16T14:16:18;14.80;85.20
13458;DHT22;6801;53.018;11.560;2024-02-16T14:18:47;14.80;84.90
13458;DHT22;6801;53.018;11.560;2024-02-16T14:21:16;14.80;84.70
13458;DHT22;6801;53.018;11.560;2024-02-16T14:23:44;14.80;84.90
13458;DHT22;6801;53.018;11.560;2024-02-16T14:26:11;14.80;84.70
13458;DHT22;6801;53.018;11.560;2024-02-16T14:28:38;14.70;84.90
13458;DHT22;6801;53.018;11.560;2024-02-16T14:31:05;14.70;84.90
13458;DHT22;6801;53.018;11.560;2024-02-16T14:33:33;14.70;84.90
13458;DHT22;6801;53.018;11.560;2024-02-16T14:36:01;14.60;85.10
13458;DHT22;6801;53.018;11.560;2024-02-16T14:38:28;14.70;85.10
13458;DHT22;6801;53.018;11.560;2024-02-16T14:40:56;14.70;85.20
13458;DHT22;6801;53.018;11.560;2024-02-16T14:43:23;14.60;85.20
13458;DHT22;6801;53.018;11.560;2024-02-16T14:45:50;14.60;85.10
13458;DHT22;6801;53.018;11.560;2024-02-16T14:48:18;14.70;85.10
13458;DHT22;6801;53.018;11.560;2024-02-16T14:50:45;14.60;85.10
13458;DHT22;6801;53.018;11.560;2024-02-16T14:53:13;14.60;84.80
13458;DHT22;6801;53.018;11.560;2024-02-16T14:55:42;14.60;84.70
13458;DHT22;6801;53.018;11.560;2024-02-16T14:58:09;14.60;84.80
13458;DHT22;6801;53.018;11.560;2024-02-16T15:00:36;14.60;85.00
13458;DHT22;6801;53.018;11.560;2024-02-16T15:03:04;14.60;85.00
13458;DHT22;6801;53.018;11.560;2024-02-16T15:05:31;14.60;84.80
13458;DHT22;6801;53.018;11.560;2024-02-16T15:07:58;14.50;84.80
13458;DHT22;6801;53.018;11.560;2024-02-16T15:10:27;14.50;85.00
13458;DHT22;6801;53.018;11.560;2024-02-16T15:12:54;14.50;84.90
13458;DHT22;6801;53.018;11.560;2024-02-16T15:15:21;14.50;84.90
13458;DHT22;6801;53.018;11.560;2024-02-16T15:17:48;14.50;85.00
13458;DHT22;6801;53.018;11.560;2024-02-16T15:20:15;14.40;85.00
13458;DHT22;6801;53.018;11.560;2024-02-16T15:22:42;14.50;85.00
13458;DHT22;6801;53.018;11.560;2024-02-16T15:25:10;14.40;85.00
13458;DHT22;6801;53.018;11.560;2024-02-16T15:27:38;14.40;85.00
13458;DHT22;6801;53.018;11.560;2024-02-16T15:30:06;14.30;85.00
13458;DHT22;6801;53.018;11.560;2024-02-16T15:32:33;14.30;85.00